createdAt,value
2019-02-10T00:00:26.881Z,4.73
2019-02-10T00:02:54.589Z,4.50
2019-02-10T00:05:20.926Z,5.80
2019-02-10T00:07:47.241Z,5.03
2019-02-10T00:10:13.573Z,1.87
2019-02-10T00:12:40.160Z,9.53
2019-02-10T00:15:06.965Z,2.77
2019-02-10T00:17:33.318Z,5.80
2019-02-10T00:19:59.876Z,7.57
2019-02-10T00:22:26.207Z,4.10
2019-02-10T00:24:52.553Z,7.03
2019-02-10T00:27:19.083Z,7.27
2019-02-10T00:29:45.647Z,4.90
2019-02-10T00:32:11.989Z,6.33
2019-02-10T00:34:38.568Z,3.97
2019-02-10T00:37:05.119Z,6.90
2019-02-10T00:39:31.814Z,7.53
2019-02-10T00:41:58.437Z,4.27
2019-02-10T00:44:25.019Z,1.83
2019-02-10T00:46:51.349Z,6.93
2019-02-10T00:49:18.052Z,5.70
2019-02-10T00:51:44.657Z,4.77
2019-02-10T00:54:11.243Z,10.97
2019-02-10T00:56:37.825Z,4.10
2019-02-10T00:59:04.388Z,2.67
2019-02-10T01:01:30.708Z,9.10
2019-02-10T01:03:57.243Z,4.87
2019-02-10T01:06:23.572Z,3.17
2019-02-10T01:08:50.351Z,5.10
2019-02-10T01:11:16.665Z,4.93
2019-02-10T01:13:42.986Z,5.50
2019-02-10T01:16:09.572Z,7.50
2019-02-10T01:18:35.905Z,4.70
2019-02-10T01:21:02.485Z,20.80
2019-02-10T01:23:28.800Z,8.30
2019-02-10T01:25:55.404Z,8.43
2019-02-10T01:28:22.718Z,4.93
2019-02-10T01:30:50.924Z,4.47
2019-02-10T01:33:17.525Z,9.93
2019-02-10T01:35:44.120Z,6.20
2019-02-10T01:38:10.411Z,4.27
2019-02-10T01:40:38.004Z,5.90
2019-02-10T01:43:04.340Z,7.47
2019-02-10T01:45:30.905Z,8.43
2019-02-10T01:47:57.463Z,3.80
2019-02-10T01:50:24.059Z,5.90
2019-02-10T01:52:50.416Z,7.07
2019-02-10T01:55:16.962Z,5.43
2019-02-10T01:57:43.271Z,9.67
2019-02-10T02:00:13.930Z,6.53
2019-02-10T02:02:40.500Z,9.90
2019-02-10T02:05:07.478Z,6.30
2019-02-10T02:07:33.888Z,6.57
2019-02-10T02:10:00.273Z,4.40
2019-02-10T02:12:26.904Z,2.53
2019-02-10T02:14:53.222Z,4.40
2019-02-10T02:17:19.560Z,4.67
2019-02-10T02:19:45.976Z,2.70
2019-02-10T02:22:12.543Z,8.37
2019-02-10T02:24:38.896Z,5.50
2019-02-10T02:27:05.491Z,8.23
2019-02-10T02:29:31.804Z,3.13
2019-02-10T02:31:58.409Z,5.77
2019-02-10T02:34:26.030Z,8.33
2019-02-10T02:36:52.580Z,8.60
2019-02-10T02:39:18.888Z,4.17
2019-02-10T02:41:45.446Z,2.57
2019-02-10T02:44:12.029Z,4.10
2019-02-10T02:46:38.361Z,6.30
2019-02-10T02:49:04.943Z,13.63
2019-02-10T02:51:31.588Z,14.60
2019-02-10T02:53:57.899Z,3.77
2019-02-10T02:56:24.232Z,5.93
2019-02-10T02:58:50.568Z,6.13
2019-02-10T03:01:16.901Z,7.03
2019-02-10T03:03:43.500Z,5.90
2019-02-10T03:06:10.218Z,6.43
2019-02-10T03:08:36.556Z,7.57
2019-02-10T03:11:03.121Z,15.03
2019-02-10T03:13:29.468Z,8.03
2019-02-10T03:15:55.796Z,7.93
2019-02-10T03:18:22.422Z,2.63
2019-02-10T03:20:48.724Z,8.50
2019-02-10T03:23:15.303Z,8.30
2019-02-10T03:25:41.641Z,7.00
2019-02-10T03:28:07.977Z,10.97
2019-02-10T03:30:34.285Z,4.30
2019-02-10T03:33:00.622Z,7.07
2019-02-10T03:35:28.293Z,11.37
2019-02-10T03:37:54.852Z,3.90
2019-02-10T03:40:21.180Z,4.87
2019-02-10T03:42:47.881Z,6.07
2019-02-10T03:45:14.208Z,6.77
2019-02-10T03:47:40.518Z,6.73
2019-02-10T03:50:08.479Z,8.37
2019-02-10T03:52:34.770Z,10.43
2019-02-10T03:55:01.462Z,9.20
2019-02-10T03:57:27.790Z,6.97
2019-02-10T03:59:54.383Z,15.33
2019-02-10T04:02:20.732Z,4.57
2019-02-10T04:04:47.035Z,9.80
2019-02-10T04:07:13.393Z,9.50
2019-02-10T04:09:39.822Z,4.43
2019-02-10T04:12:06.153Z,7.30
2019-02-10T04:14:32.457Z,7.83
2019-02-10T04:16:58.787Z,3.83
2019-02-10T04:19:25.083Z,4.70
2019-02-10T04:21:51.661Z,6.47
2019-02-10T04:24:18.255Z,7.40
2019-02-10T04:26:44.865Z,4.77
2019-02-10T04:29:11.472Z,7.53
2019-02-10T04:31:38.023Z,7.67
2019-02-10T04:34:04.706Z,6.43
2019-02-10T04:36:32.039Z,19.70
2019-02-10T04:38:58.361Z,5.30
2019-02-10T04:41:24.674Z,6.40
2019-02-10T04:43:53.143Z,10.30
2019-02-10T04:46:19.468Z,9.53
2019-02-10T04:48:45.779Z,17.10
2019-02-10T04:51:12.134Z,10.53
2019-02-10T04:53:38.456Z,9.17
2019-02-10T04:56:12.095Z,7.07
2019-02-10T04:58:38.406Z,17.10
2019-02-10T05:01:04.757Z,9.70
2019-02-10T05:03:31.090Z,7.57
2019-02-10T05:05:57.425Z,8.90
2019-02-10T05:08:23.831Z,6.20
2019-02-10T05:10:50.408Z,10.97
2019-02-10T05:13:16.723Z,3.97
2019-02-10T05:15:43.083Z,5.33
2019-02-10T05:18:09.651Z,5.30
2019-02-10T05:20:36.330Z,8.30
2019-02-10T05:23:02.653Z,10.53
2019-02-10T05:25:28.971Z,11.33
2019-02-10T05:27:55.573Z,5.43
2019-02-10T05:30:22.194Z,8.33
2019-02-10T05:32:49.892Z,5.60
2019-02-10T05:35:16.239Z,12.50
2019-02-10T05:37:42.519Z,8.43
2019-02-10T05:40:10.965Z,9.30
2019-02-10T05:42:37.292Z,8.77
2019-02-10T05:45:06.225Z,8.90
2019-02-10T05:47:32.820Z,4.67
2019-02-10T05:49:59.136Z,9.23
2019-02-10T05:52:25.488Z,9.70
2019-02-10T05:54:51.826Z,9.50
2019-02-10T05:57:18.160Z,16.13
2019-02-10T05:59:44.747Z,9.90
2019-02-10T06:02:21.896Z,12.10
2019-02-10T06:04:48.491Z,6.70
2019-02-10T06:07:16.629Z,12.07
2019-02-10T06:09:43.255Z,8.43
2019-02-10T06:12:09.605Z,3.57
2019-02-10T06:14:35.955Z,6.90
2019-02-10T06:17:02.327Z,15.13
2019-02-10T06:19:28.874Z,4.67
2019-02-10T06:21:55.219Z,9.67
2019-02-10T06:24:21.791Z,10.90
2019-02-10T06:26:49.188Z,9.10
2019-02-10T06:29:15.480Z,6.07
2019-02-10T06:31:43.184Z,10.83
2019-02-10T06:34:09.503Z,11.73
2019-02-10T06:36:36.101Z,8.83
2019-02-10T06:39:04.317Z,8.30
2019-02-10T06:41:30.786Z,9.47
2019-02-10T06:43:57.106Z,9.47
2019-02-10T06:46:23.425Z,6.43
2019-02-10T06:48:50.009Z,8.57
2019-02-10T06:51:16.580Z,13.17
2019-02-10T06:53:43.185Z,11.93
2019-02-10T06:56:09.537Z,13.70
2019-02-10T06:58:36.150Z,1.97
2019-02-10T07:01:16.099Z,26.17
2019-02-10T07:03:48.838Z,12.83
2019-02-10T07:06:15.429Z,7.70
2019-02-10T07:08:41.723Z,6.40
2019-02-10T07:11:08.095Z,10.13
2019-02-10T07:13:41.571Z,8.30
2019-02-10T07:16:42.822Z,14.77
2019-02-10T07:20:04.749Z,21.33
2019-02-10T07:22:45.720Z,9.07
2019-02-10T07:25:18.017Z,4.50
2019-02-10T07:27:58.067Z,12.07
2019-02-10T07:30:59.554Z,13.10
2019-02-10T07:34:04.582Z,9.80
2019-02-10T07:36:54.439Z,19.47
2019-02-10T07:39:35.727Z,9.60
2019-02-10T07:42:10.907Z,7.13
2019-02-10T07:45:10.154Z,11.57
2019-02-10T07:48:02.225Z,7.97
2019-02-10T07:50:57.864Z,9.63
2019-02-10T07:53:52.612Z,8.50
2019-02-10T07:56:36.012Z,19.90
2019-02-10T07:59:19.929Z,16.70
2019-02-10T08:02:22.278Z,15.53
2019-02-10T08:05:27.469Z,16.90
2019-02-10T08:08:14.754Z,12.37
2019-02-10T08:11:26.630Z,11.63
2019-02-10T08:14:30.122Z,12.63
2019-02-10T08:17:02.223Z,11.07
2019-02-10T08:19:55.572Z,7.57
2019-02-10T08:22:56.896Z,5.50
2019-02-10T08:25:41.012Z,10.23
2019-02-10T08:28:38.138Z,6.03
2019-02-10T08:31:35.555Z,9.47
2019-02-10T08:34:22.339Z,2.77
2019-02-10T08:36:54.416Z,4.83
2019-02-10T08:39:47.768Z,6.57
2019-02-10T08:42:25.201Z,4.83
2019-02-10T08:45:00.463Z,4.70
2019-02-10T08:47:47.398Z,3.60
2019-02-10T08:50:42.682Z,4.20
2019-02-10T08:53:20.078Z,5.13
2019-02-10T08:55:47.118Z,5.90
2019-02-10T08:58:13.434Z,3.33
2019-02-10T09:00:40.031Z,2.60
2019-02-10T09:03:06.386Z,4.50
2019-02-10T09:05:33.714Z,3.83
2019-02-10T09:08:00.066Z,3.07
2019-02-10T09:10:27.367Z,4.27
2019-02-10T09:12:54.908Z,2.30
2019-02-10T09:15:21.389Z,3.80
2019-02-10T09:17:47.832Z,4.70
2019-02-10T09:20:14.470Z,5.43
2019-02-10T09:22:40.940Z,2.60
2019-02-10T09:25:10.224Z,4.07
2019-02-10T09:27:36.706Z,7.80
2019-02-10T09:30:10.440Z,4.87
2019-02-10T09:35:15.988Z,5.67
2019-02-10T09:37:55.890Z,3.37
2019-02-10T09:40:35.240Z,7.70
2019-02-10T09:43:01.562Z,3.90
2019-02-10T09:45:42.410Z,2.80
2019-02-10T09:48:09.115Z,4.03
2019-02-10T09:50:48.723Z,4.30
2019-02-10T09:53:34.926Z,1.30
2019-02-10T09:56:15.104Z,3.37
2019-02-10T09:59:01.356Z,2.20
2019-02-10T10:01:41.540Z,4.57
2019-02-10T10:04:22.060Z,5.03
2019-02-10T10:07:08.537Z,3.43
2019-02-10T10:09:47.941Z,2.10
2019-02-10T10:12:34.373Z,4.43
2019-02-10T10:15:14.907Z,2.23
2019-02-10T10:18:01.377Z,4.50
2019-02-10T10:20:41.243Z,2.23
2019-02-10T10:23:27.447Z,3.07
2019-02-10T10:26:07.654Z,4.43
2019-02-10T10:28:46.948Z,2.77
2019-02-10T10:31:26.245Z,5.60
2019-02-10T10:34:12.822Z,3.07
2019-02-10T10:36:52.710Z,5.70
2019-02-10T10:39:39.250Z,4.47
2019-02-10T10:42:19.943Z,2.83
2019-02-10T10:45:01.269Z,5.53
2019-02-10T10:47:47.743Z,4.97
2019-02-10T10:50:30.434Z,2.00
2019-02-10T10:53:16.650Z,2.93
2019-02-10T10:55:56.826Z,5.03
2019-02-10T10:58:43.029Z,2.57
2019-02-10T11:01:25.369Z,4.13
2019-02-10T11:04:12.232Z,3.60
2019-02-10T11:06:52.099Z,3.00
2019-02-10T11:09:38.595Z,2.00
2019-02-10T11:12:18.265Z,5.33
2019-02-10T11:15:24.380Z,3.90
2019-02-10T11:18:04.474Z,4.37
2019-02-10T11:20:51.072Z,3.60
2019-02-10T11:23:30.660Z,4.53
2019-02-10T11:26:17.301Z,7.20
2019-02-10T11:28:58.032Z,2.03
2019-02-10T11:31:38.530Z,2.60
2019-02-10T11:34:25.043Z,2.27
2019-02-10T11:37:07.556Z,3.13
2019-02-10T11:39:54.157Z,8.70
2019-02-10T11:42:34.654Z,4.10
2019-02-10T11:45:20.855Z,4.53
2019-02-10T11:48:00.975Z,4.43
2019-02-10T11:50:47.198Z,6.10
2019-02-10T11:53:27.483Z,3.00
2019-02-10T11:56:13.692Z,8.60
2019-02-10T11:58:54.701Z,6.90
2019-02-10T12:01:40.919Z,7.57
2019-02-10T12:04:20.330Z,3.63
2019-02-10T12:07:06.518Z,3.07
2019-02-10T12:09:51.534Z,3.30
2019-02-10T12:12:29.365Z,8.00
2019-02-10T12:15:15.809Z,2.67
2019-02-10T12:17:55.773Z,3.37
2019-02-10T12:20:42.033Z,3.10
2019-02-10T12:23:22.154Z,7.00
2019-02-10T12:26:08.630Z,3.37
2019-02-10T12:28:48.566Z,3.03
2019-02-10T12:31:27.941Z,2.63
2019-02-10T12:34:14.674Z,4.10
2019-02-10T12:36:54.668Z,3.07
2019-02-10T12:39:41.165Z,2.73
2019-02-10T12:42:20.923Z,3.13
2019-02-10T12:48:29.761Z,3.00
2019-02-10T12:51:10.001Z,3.70
2019-02-10T12:53:50.336Z,2.13
2019-02-10T12:56:36.551Z,4.00
2019-02-10T12:59:16.167Z,3.57
2019-02-10T13:02:02.950Z,1.57
2019-02-10T13:04:42.861Z,3.00
2019-02-10T13:07:29.106Z,2.93
2019-02-10T13:10:10.836Z,2.30
2019-02-10T13:12:58.451Z,0.97
2019-02-10T13:15:44.841Z,4.83
2019-02-10T13:18:31.078Z,5.77
2019-02-10T13:21:10.594Z,1.90
2019-02-10T13:23:57.082Z,1.53
2019-02-10T13:26:37.166Z,2.77
2019-02-10T13:29:23.683Z,3.53
2019-02-10T13:32:03.943Z,1.37
2019-02-10T13:34:50.132Z,2.60
2019-02-10T13:37:30.230Z,2.37
2019-02-10T13:43:20.853Z,5.07
2019-02-10T13:46:00.886Z,3.27
2019-02-10T13:48:47.397Z,2.93
2019-02-10T13:51:27.542Z,2.40
2019-02-10T13:54:14.195Z,2.20
2019-02-10T13:56:55.998Z,2.33
2019-02-10T13:59:42.492Z,5.33
2019-02-10T14:02:21.874Z,3.30
2019-02-10T14:05:08.299Z,3.57
2019-02-10T14:07:50.780Z,2.67
2019-02-10T14:10:37.417Z,5.30
2019-02-10T14:13:17.898Z,3.10
2019-02-10T14:16:04.387Z,6.00
2019-02-10T14:18:45.060Z,3.30
2019-02-10T14:21:24.674Z,2.50
2019-02-10T14:24:11.176Z,2.93
2019-02-10T14:26:51.679Z,4.67
2019-02-10T14:29:38.097Z,3.03
2019-02-10T14:32:18.623Z,3.33
2019-02-10T14:34:58.719Z,4.80
2019-02-10T14:37:45.191Z,3.80
2019-02-10T14:40:33.447Z,1.77
2019-02-10T14:43:15.092Z,2.47
2019-02-10T14:45:55.316Z,4.40
2019-02-10T14:48:41.585Z,3.57
2019-02-10T14:51:21.137Z,3.20
2019-02-10T14:54:07.704Z,4.80
2019-02-10T14:56:48.376Z,2.87
2019-02-10T14:59:34.663Z,3.10
2019-02-10T15:02:14.935Z,2.60
2019-02-10T15:05:01.465Z,4.47
2019-02-10T15:07:41.034Z,4.10
2019-02-10T15:10:27.561Z,1.53
2019-02-10T15:13:07.496Z,2.50
2019-02-10T15:15:53.806Z,8.17
2019-02-10T15:18:33.543Z,5.10
2019-02-10T15:21:20.019Z,2.20
2019-02-10T15:24:01.041Z,1.80
2019-02-10T15:26:47.567Z,1.40
2019-02-10T15:29:27.540Z,3.37
2019-02-10T15:32:07.258Z,2.50
2019-02-10T15:34:47.715Z,1.70
2019-02-10T15:37:28.811Z,0.90
2019-02-10T15:40:15.045Z,3.53
2019-02-10T15:42:54.930Z,1.90
2019-02-10T15:45:41.586Z,2.77
2019-02-10T15:48:21.275Z,1.80
2019-02-10T15:51:07.566Z,2.33
2019-02-10T15:53:48.374Z,1.17
2019-02-10T15:56:34.643Z,0.80
2019-02-10T15:59:14.382Z,2.43
2019-02-10T16:02:00.617Z,1.17
2019-02-10T16:04:41.371Z,1.10
2019-02-10T16:07:27.857Z,1.27
2019-02-10T16:10:10.263Z,0.77
2019-02-10T16:12:57.755Z,0.80
2019-02-10T16:15:38.294Z,1.67
2019-02-10T16:18:24.528Z,2.13
2019-02-10T16:21:05.341Z,0.83
2019-02-10T16:23:45.246Z,0.80
2019-02-10T16:26:31.481Z,0.70
2019-02-10T16:29:11.304Z,2.20
2019-02-10T16:31:51.033Z,0.77
2019-02-10T16:34:30.634Z,3.83
2019-02-10T16:37:17.139Z,4.63
2019-02-10T16:39:56.721Z,0.77
2019-02-10T16:42:36.750Z,2.80
2019-02-10T16:45:23.008Z,1.80
2019-02-10T16:48:03.223Z,1.03
2019-02-10T16:50:49.454Z,1.67
2019-02-10T16:53:29.224Z,0.60
2019-02-10T16:56:15.533Z,0.90
2019-02-10T16:58:55.475Z,0.83
2019-02-10T17:01:41.723Z,1.30
2019-02-10T17:04:21.255Z,1.40
2019-02-10T17:07:07.597Z,2.80
2019-02-10T17:09:47.798Z,0.90
2019-02-10T17:12:34.185Z,1.40
2019-02-10T17:15:14.127Z,1.30
2019-02-10T17:18:00.373Z,3.03
2019-02-10T17:20:40.795Z,1.20
2019-02-10T17:23:20.725Z,1.23
2019-02-10T17:26:07.223Z,1.10
2019-02-10T17:28:46.847Z,0.70
2019-02-10T17:31:26.978Z,1.10
2019-02-10T17:34:13.465Z,3.27
2019-02-10T17:36:53.442Z,3.00
2019-02-10T17:39:39.680Z,2.50
2019-02-10T17:42:19.639Z,1.13
2019-02-10T17:45:27.948Z,1.40
2019-02-10T17:48:08.113Z,0.70
2019-02-10T17:50:54.623Z,1.83
2019-02-10T17:53:34.281Z,1.00
2019-02-10T17:56:20.490Z,1.30
2019-02-10T17:58:59.780Z,1.30
2019-02-10T18:01:46.126Z,1.37
2019-02-10T18:04:27.939Z,1.17
2019-02-10T18:07:14.280Z,1.07
2019-02-10T18:09:54.143Z,2.03
2019-02-10T18:12:40.771Z,1.10
2019-02-10T18:15:41.323Z,0.87
2019-02-10T18:18:47.574Z,0.90
2019-02-10T18:27:56.244Z,1.23
2019-02-10T18:30:56.240Z,1.00
2019-02-10T18:34:02.342Z,1.10
2019-02-10T18:37:03.328Z,1.03
2019-02-10T18:40:09.456Z,1.67
2019-02-10T18:43:09.849Z,1.67
2019-02-10T18:45:51.558Z,0.70
2019-02-10T18:51:59.136Z,0.90
2019-02-10T18:58:06.679Z,1.20
2019-02-10T19:01:08.078Z,0.93
2019-02-10T19:04:14.172Z,1.40
2019-02-10T19:07:14.172Z,0.87
2019-02-10T19:10:20.600Z,1.03
2019-02-10T19:13:05.455Z,1.17
2019-02-10T19:15:51.746Z,1.63
2019-02-10T19:18:31.658Z,0.83
2019-02-10T19:21:37.805Z,2.20
2019-02-10T19:24:19.119Z,1.63
2019-02-10T19:30:17.779Z,1.30
2019-02-10T19:36:37.691Z,3.00
2019-02-10T19:39:22.470Z,1.00
2019-02-10T19:42:22.895Z,1.30
2019-02-10T19:45:29.075Z,1.00
2019-02-10T19:51:42.340Z,0.70
2019-02-10T19:54:24.275Z,1.37
2019-02-10T19:57:30.851Z,0.70
2019-02-10T20:03:38.771Z,0.93
2019-02-10T20:06:39.470Z,0.70
2019-02-10T20:09:45.673Z,1.63
2019-02-10T20:12:30.024Z,0.80
2019-02-10T20:15:36.506Z,0.60
2019-02-10T20:31:06.329Z,0.70
2019-02-10T20:34:12.576Z,0.60
2019-02-10T20:40:18.849Z,0.60
2019-02-10T20:46:18.832Z,0.53
2019-02-10T20:49:25.376Z,0.80
2019-02-10T20:55:45.103Z,0.60
2019-02-10T20:58:25.455Z,1.30
2019-02-10T21:04:45.126Z,0.50
2019-02-10T21:11:04.617Z,0.60
2019-02-10T21:13:49.184Z,0.50
2019-02-10T21:16:55.556Z,0.67
2019-02-10T21:19:58.593Z,0.60
2019-02-10T21:23:04.782Z,0.70
2019-02-10T21:26:05.497Z,0.60
2019-02-10T21:28:47.463Z,0.60
2019-02-10T21:31:28.943Z,1.43
2019-02-10T21:37:43.084Z,1.07
2019-02-10T21:40:43.491Z,1.93
2019-02-10T21:46:33.163Z,0.50
2019-02-10T21:49:19.881Z,0.87
2019-02-10T21:52:06.607Z,1.07
2019-02-10T21:54:52.807Z,0.80
2019-02-10T21:57:33.042Z,0.60
2019-02-10T22:00:19.586Z,0.40
2019-02-10T22:02:59.959Z,0.50
2019-02-10T22:05:39.648Z,0.40
2019-02-10T22:08:19.659Z,0.50
2019-02-10T22:11:05.929Z,0.40
2019-02-10T22:13:45.891Z,0.50
2019-02-10T22:16:32.123Z,0.50
2019-02-10T22:19:13.356Z,0.50
2019-02-10T22:22:19.731Z,0.60
2019-02-10T22:25:00.540Z,0.80
2019-02-10T22:27:40.612Z,0.40
2019-02-10T22:30:26.845Z,0.70
2019-02-10T22:33:07.182Z,0.50
2019-02-10T22:35:53.686Z,0.83
2019-02-10T22:38:33.709Z,0.50
2019-02-10T22:41:19.992Z,0.50
2019-02-10T22:43:59.748Z,0.40
2019-02-10T22:46:45.963Z,0.50
2019-02-10T22:49:25.983Z,1.03
2019-02-10T22:52:12.665Z,0.60
2019-02-10T22:54:52.157Z,2.13
2019-02-10T22:57:38.402Z,0.50
2019-02-10T23:00:41.890Z,0.50
2019-02-10T23:03:28.506Z,0.40
2019-02-10T23:06:09.062Z,0.50
2019-02-10T23:08:55.551Z,0.47
2019-02-10T23:11:35.601Z,0.60
2019-02-10T23:14:21.870Z,0.57
2019-02-10T23:17:02.328Z,0.43
2019-02-10T23:19:48.562Z,0.70
2019-02-10T23:22:29.630Z,0.40
2019-02-10T23:25:15.838Z,0.50
2019-02-10T23:27:56.562Z,0.40
2019-02-10T23:30:37.090Z,0.40
2019-02-10T23:33:23.574Z,0.50
2019-02-10T23:36:03.446Z,0.40
2019-02-10T23:41:49.505Z,0.40
2019-02-10T23:44:36.039Z,0.40
2019-02-10T23:47:23.085Z,0.40
2019-02-10T23:50:09.785Z,0.80
2019-02-10T23:52:49.732Z,0.50
2019-02-10T23:55:35.951Z,0.50
2019-02-10T23:58:16.410Z,0.40
